Time;durP1;ratioP1;P1;durP2;ratioP2;P2;SDS_P1;SDS_P2;PMS_P1;PMS_P2;Temp;Humidity;BMP_temperature;BMP_pressure;BME280_temperature;BME280_humidity;BME280_pressure;Samples;Min_cycle;Max_cycle;Signal;HPM_P1;HPM_P2
2022/09/21 00:00:24;;;;;;;2.17;0.70;;;17.10;63.30;;;;;;5053703;28;20262;-62
2022/09/21 00:02:50;;;;;;;1.08;0.65;;;17.10;63.30;;;;;;5054221;28;20278;-62
2022/09/21 00:05:16;;;;;;;2.05;0.57;;;17.10;63.30;;;;;;5053798;28;20171;-62
2022/09/21 00:07:42;;;;;;;1.30;0.75;;;17.10;63.30;;;;;;5053149;28;20783;-62
2022/09/21 00:10:08;;;;;;;2.08;0.60;;;17.10;63.30;;;;;;5054032;28;20183;-62
2022/09/21 00:12:37;;;;;;;0.70;0.70;;;17.10;63.30;;;;;;5053487;28;20730;-62
2022/09/21 00:15:08;;;;;;;0.85;0.70;;;17.10;63.40;;;;;;5053702;28;20267;-63
2022/09/21 00:17:33;;;;;;;1.17;0.70;;;17.10;63.40;;;;;;5054164;28;20179;-62
2022/09/21 00:20:01;;;;;;;1.20;0.80;;;17.10;63.40;;;;;;5052860;28;20224;-62
2022/09/21 00:22:27;;;;;;;1.85;0.63;;;17.10;63.30;;;;;;5053963;28;20220;-62
2022/09/21 00:24:54;;;;;;;0.70;0.70;;;17.10;63.30;;;;;;5053746;28;20638;-62
2022/09/21 00:27:19;;;;;;;1.40;0.70;;;17.10;63.40;;;;;;5052903;28;20183;-62
2022/09/21 00:29:45;;;;;;;0.65;0.65;;;17.10;63.30;;;;;;5053659;28;20178;-62
2022/09/21 00:32:10;;;;;;;0.50;0.50;;;17.10;63.30;;;;;;5053383;28;20181;-62
2022/09/21 00:34:36;;;;;;;1.90;0.75;;;17.10;63.30;;;;;;5052847;28;20195;-62
2022/09/21 00:37:01;;;;;;;1.10;0.60;;;17.10;63.30;;;;;;5053562;28;20171;-66
2022/09/21 00:39:30;;;;;;;2.03;0.70;;;17.10;63.30;;;;;;5053780;28;20185;-64
2022/09/21 00:41:56;;;;;;;0.95;0.52;;;17.10;63.40;;;;;;5052871;28;20590;-62
2022/09/21 00:44:28;;;;;;;2.15;0.80;;;17.10;63.30;;;;;;5053359;28;20642;-62
2022/09/21 00:46:55;;;;;;;0.60;0.60;;;17.10;63.30;;;;;;5053440;28;20175;-62
2022/09/21 00:49:21;;;;;;;0.80;0.60;;;17.10;63.30;;;;;;5052238;28;20183;-62
2022/09/21 00:51:46;;;;;;;1.23;0.80;;;17.00;63.20;;;;;;5053372;28;20229;-62
2022/09/21 00:54:16;;;;;;;1.02;0.60;;;17.10;63.30;;;;;;5051699;28;20569;-62
2022/09/21 00:56:41;;;;;;;0.57;0.57;;;17.00;63.30;;;;;;5050795;28;20175;-62
2022/09/21 00:59:07;;;;;;;0.68;0.68;;;17.00;63.20;;;;;;5052867;28;20179;-62
2022/09/21 01:01:33;;;;;;;1.38;0.80;;;17.00;63.20;;;;;;5051950;28;20626;-62
2022/09/21 01:03:59;;;;;;;0.85;0.70;;;17.00;63.30;;;;;;5052226;28;20183;-62
2022/09/21 01:06:25;;;;;;;0.75;0.68;;;17.10;63.40;;;;;;5051976;28;20167;-62
2022/09/21 01:08:52;;;;;;;1.10;0.73;;;17.00;63.30;;;;;;5052141;28;20238;-62
2022/09/21 01:11:36;;;;;;;1.65;0.82;;;17.00;63.20;;;;;;5052717;28;20179;-62
2022/09/21 01:14:07;;;;;;;0.60;0.52;;;17.00;63.20;;;;;;5052585;28;20210;-62
2022/09/21 01:16:37;;;;;;;1.05;0.55;;;17.00;63.20;;;;;;5052041;28;20265;-63
2022/09/21 01:19:33;;;;;;;1.35;0.85;;;17.00;63.20;;;;;;5051396;28;20182;-62
2022/09/21 01:22:17;;;;;;;0.70;0.70;;;17.00;63.30;;;;;;5051329;28;20203;-62
2022/09/21 01:24:54;;;;;;;0.60;0.60;;;17.00;63.30;;;;;;5050888;28;20171;-63
2022/09/21 01:27:57;;;;;;;0.50;0.50;;;17.00;63.30;;;;;;5051456;28;20174;-62
2022/09/21 01:30:23;;;;;;;1.50;0.90;;;17.00;63.30;;;;;;5050907;28;20171;-62
2022/09/21 01:32:53;;;;;;;0.75;0.63;;;17.00;63.30;;;;;;5051396;28;20711;-62
2022/09/21 01:35:33;;;;;;;1.52;0.70;;;17.00;63.20;;;;;;5051467;28;20187;-62
2022/09/21 01:38:20;;;;;;;1.10;0.93;;;17.00;62.50;;;;;;5050813;28;20229;-62
2022/09/21 01:40:54;;;;;;;0.80;0.63;;;17.00;63.30;;;;;;5051670;28;20261;-62
2022/09/21 01:43:24;;;;;;;0.70;0.70;;;17.00;63.30;;;;;;5051187;28;20170;-62
2022/09/21 01:45:50;;;;;;;0.70;0.70;;;17.00;63.30;;;;;;5050958;28;20177;-62
2022/09/21 01:48:16;;;;;;;1.58;0.75;;;17.00;64.20;;;;;;5052528;28;20274;-62
2022/09/21 01:50:45;;;;;;;1.27;0.55;;;17.00;63.20;;;;;;5051523;28;20684;-62
2022/09/21 01:53:36;;;;;;;0.98;0.70;;;17.00;63.30;;;;;;5050251;28;20207;-63
2022/09/21 01:56:15;;;;;;;0.60;0.60;;;16.90;63.30;;;;;;5052163;28;20175;-62
2022/09/21 01:58:46;;;;;;;0.50;0.50;;;17.00;63.30;;;;;;5050554;28;20687;-62
2022/09/21 02:01:14;;;;;;;0.57;0.50;;;16.90;64.10;;;;;;5052417;28;20692;-62
2022/09/21 02:03:42;;;;;;;0.50;0.50;;;16.90;63.20;;;;;;5051348;28;20693;-62
2022/09/21 02:06:08;;;;;;;0.73;0.73;;;17.00;63.40;;;;;;5050286;28;20179;-62
2022/09/21 02:08:34;;;;;;;0.70;0.70;;;16.90;63.30;;;;;;5052367;28;20583;-62
2022/09/21 02:11:00;;;;;;;0.70;0.70;;;16.90;63.30;;;;;;5055090;28;20171;-63
2022/09/21 02:13:27;;;;;;;1.13;0.70;;;16.90;63.30;;;;;;5054417;28;20217;-63
2022/09/21 02:16:06;;;;;;;1.35;0.68;;;16.90;63.30;;;;;;5056388;28;20541;-62
2022/09/21 02:18:43;;;;;;;0.60;0.60;;;16.90;63.30;;;;;;5056101;28;20170;-63
2022/09/21 02:21:27;;;;;;;1.23;0.50;;;16.90;63.30;;;;;;5054972;28;20185;-62
2022/09/21 02:24:10;;;;;;;1.10;0.70;;;16.90;63.30;;;;;;5056132;28;20173;-62
2022/09/21 02:26:43;;;;;;;0.60;0.60;;;16.90;63.30;;;;;;5054149;28;20183;-63
2022/09/21 02:29:16;;;;;;;0.75;0.60;;;16.90;63.30;;;;;;5054513;28;20210;-62
2022/09/21 02:32:00;;;;;;;1.35;0.55;;;16.90;63.30;;;;;;5056115;28;20175;-62
2022/09/21 02:34:45;;;;;;;1.77;0.60;;;16.90;63.30;;;;;;5053829;28;20692;-62
2022/09/21 02:37:30;;;;;;;1.52;0.70;;;16.90;63.30;;;;;;5054334;28;20172;-62
2022/09/21 02:40:02;;;;;;;0.65;0.65;;;16.90;63.30;;;;;;5054756;28;20233;-62
2022/09/21 02:42:33;;;;;;;0.60;0.60;;;16.90;63.30;;;;;;5053933;28;20175;-62
2022/09/21 02:45:09;;;;;;;1.42;0.60;;;16.90;63.30;;;;;;5055479;28;20179;-62
2022/09/21 02:47:40;;;;;;;0.68;0.60;;;16.90;63.30;;;;;;5053754;28;20175;-62
2022/09/21 02:50:22;;;;;;;0.80;0.57;;;16.90;63.30;;;;;;5055095;28;20183;-62
2022/09/21 02:52:47;;;;;;;0.73;0.70;;;16.80;63.20;;;;;;5055427;28;20525;-62
2022/09/21 02:55:13;;;;;;;1.05;0.70;;;16.90;63.20;;;;;;5054579;28;20182;-63
2022/09/21 02:57:38;;;;;;;0.70;0.70;;;16.90;63.20;;;;;;5054173;28;20500;-62
2022/09/21 03:00:04;;;;;;;1.67;0.82;;;16.90;63.30;;;;;;5055266;28;20755;-62
2022/09/21 03:02:38;;;;;;;1.25;0.70;;;16.80;63.20;;;;;;5054636;28;20171;-62
2022/09/21 03:05:04;;;;;;;1.52;0.57;;;16.80;63.20;;;;;;5055176;28;20175;-62
2022/09/21 03:07:29;;;;;;;0.60;0.60;;;16.90;63.30;;;;;;5054060;28;20258;-63
2022/09/21 03:09:55;;;;;;;0.50;0.47;;;16.90;63.30;;;;;;5054463;28;20262;-63
2022/09/21 03:12:21;;;;;;;1.25;0.70;;;16.80;63.20;;;;;;5054929;28;20186;-62
2022/09/21 03:14:46;;;;;;;0.85;0.70;;;16.80;63.20;;;;;;5055102;28;20214;-63
2022/09/21 03:17:12;;;;;;;2.60;0.70;;;16.90;63.30;;;;;;5054036;28;20629;-64
2022/09/21 03:19:37;;;;;;;1.25;0.60;;;16.80;63.20;;;;;;5054538;28;20182;-63
2022/09/21 03:22:03;;;;;;;0.70;0.70;;;16.80;63.20;;;;;;5054683;28;20221;-62
2022/09/21 03:24:46;;;;;;;0.90;0.60;;;16.80;63.20;;;;;;5054178;28;20179;-63
2022/09/21 03:27:13;;;;;;;1.08;0.50;;;16.80;63.10;;;;;;5054742;28;20229;-63
2022/09/21 03:29:39;;;;;;;0.50;0.50;;;16.80;63.10;;;;;;5054063;28;20575;-62
2022/09/21 03:32:05;;;;;;;0.70;0.60;;;16.80;63.20;;;;;;5054706;28;20211;-62
2022/09/21 03:34:32;;;;;;;0.70;0.70;;;16.80;63.20;;;;;;5054829;28;20280;-62
2022/09/21 03:37:01;;;;;;;1.27;0.70;;;16.80;63.10;;;;;;5053648;28;20695;-62
2022/09/21 03:39:27;;;;;;;0.90;0.60;;;16.80;63.20;;;;;;5054559;28;20737;-62
2022/09/21 03:41:55;;;;;;;1.73;0.55;;;16.80;63.10;;;;;;5054694;28;20178;-62
2022/09/21 03:44:22;;;;;;;1.08;0.82;;;16.80;63.10;;;;;;5053571;28;20513;-62
2022/09/21 03:46:47;;;;;;;0.82;0.52;;;16.80;63.20;;;;;;5054641;28;20178;-62
2022/09/21 03:49:13;;;;;;;0.63;0.63;;;16.70;63.10;;;;;;5054329;28;20175;-62
2022/09/21 03:51:39;;;;;;;0.60;0.60;;;16.80;63.20;;;;;;5053788;28;20176;-63
2022/09/21 03:54:04;;;;;;;1.27;0.82;;;16.80;63.10;;;;;;5054054;28;20210;-62
2022/09/21 03:56:30;;;;;;;1.20;0.70;;;16.70;63.10;;;;;;5054498;28;20225;-63
2022/09/21 03:58:55;;;;;;;1.17;0.68;;;16.80;63.20;;;;;;5053506;28;20178;-63
2022/09/21 04:01:21;;;;;;;0.65;0.65;;;16.70;62.90;;;;;;5053903;28;20179;-63
2022/09/21 04:03:47;;;;;;;0.70;0.70;;;16.80;63.10;;;;;;5054491;28;20171;-62
2022/09/21 04:06:13;;;;;;;0.73;0.65;;;16.70;63.10;;;;;;5053365;28;20167;-62
2022/09/21 04:08:38;;;;;;;1.80;0.60;;;16.80;63.60;;;;;;5053960;28;20233;-63
2022/09/21 04:11:12;;;;;;;0.70;0.70;;;16.70;63.00;;;;;;5053792;28;20175;-63
2022/09/21 04:13:37;;;;;;;2.13;0.73;;;16.70;63.00;;;;;;5053112;28;20215;-63
2022/09/21 04:16:03;;;;;;;1.23;0.70;;;16.70;63.90;;;;;;5053826;28;20197;-63
2022/09/21 04:18:29;;;;;;;1.27;0.68;;;16.70;63.00;;;;;;5054034;28;20225;-63
2022/09/21 04:20:54;;;;;;;1.08;0.55;;;16.70;63.00;;;;;;5052954;28;20657;-63
2022/09/21 04:23:21;;;;;;;1.38;0.77;;;16.70;62.90;;;;;;5053449;28;20191;-63
2022/09/21 04:25:48;;;;;;;0.82;0.60;;;16.70;63.00;;;;;;5052950;28;20187;-62
2022/09/21 04:28:13;;;;;;;0.73;0.73;;;16.70;63.00;;;;;;5053347;28;20175;-63
2022/09/21 04:30:39;;;;;;;0.55;0.55;;;16.70;63.00;;;;;;5053843;28;20201;-62
2022/09/21 04:33:04;;;;;;;0.73;0.70;;;16.70;63.00;;;;;;5052374;28;20171;-63
2022/09/21 04:35:30;;;;;;;0.65;0.50;;;16.70;63.00;;;;;;5053712;28;20258;-62
2022/09/21 04:37:56;;;;;;;0.63;0.63;;;16.70;63.80;;;;;;5053571;28;20178;-62
2022/09/21 04:40:22;;;;;;;0.90;0.50;;;16.70;62.90;;;;;;5052313;28;20179;-63
2022/09/21 04:42:54;;;;;;;0.65;0.57;;;16.70;62.90;;;;;;5053867;28;20501;-62
2022/09/21 04:45:20;;;;;;;0.82;0.60;;;16.70;62.90;;;;;;5053371;28;20181;-63
2022/09/21 04:47:46;;;;;;;0.63;0.57;;;16.70;63.00;;;;;;5052726;28;20190;-62
2022/09/21 04:50:11;;;;;;;0.93;0.60;;;16.60;62.90;;;;;;5053107;28;20556;-62
2022/09/21 04:52:37;;;;;;;1.92;0.82;;;16.60;62.90;;;;;;5053150;28;20642;-62
2022/09/21 04:55:02;;;;;;;0.77;0.70;;;16.70;62.90;;;;;;5052094;28;20213;-62
2022/09/21 04:57:28;;;;;;;0.70;0.70;;;16.70;62.90;;;;;;5053629;28;20531;-63
2022/09/21 04:59:54;;;;;;;0.65;0.40;;;16.60;62.90;;;;;;5053394;28;20175;-62
2022/09/21 05:02:19;;;;;;;0.43;0.43;;;16.60;62.80;;;;;;5052317;28;20175;-62
2022/09/21 05:04:48;;;;;;;0.60;0.60;;;16.60;62.80;;;;;;5053223;28;20175;-62
2022/09/21 05:07:14;;;;;;;1.20;0.70;;;16.60;62.80;;;;;;5052603;28;20175;-62
2022/09/21 05:12:23;;;;;;;0.80;0.70;;;16.60;62.80;;;;;;5053026;28;20225;-63
2022/09/21 05:14:49;;;;;;;0.68;0.60;;;16.60;62.80;;;;;;5052945;28;20207;-63
2022/09/21 05:17:15;;;;;;;0.57;0.57;;;16.60;62.80;;;;;;5051983;28;20171;-63
2022/09/21 05:19:41;;;;;;;0.75;0.75;;;16.60;62.80;;;;;;5053204;28;20175;-62
2022/09/21 05:22:06;;;;;;;0.80;0.80;;;16.60;62.80;;;;;;5052045;28;20590;-63
2022/09/21 05:24:32;;;;;;;0.70;0.70;;;16.60;62.80;;;;;;5053078;28;20703;-63
2022/09/21 05:26:57;;;;;;;0.70;0.65;;;16.60;62.80;;;;;;5052703;28;20692;-62
2022/09/21 05:29:23;;;;;;;0.70;0.70;;;16.60;62.80;;;;;;5052213;28;20175;-63
2022/09/21 05:31:57;;;;;;;0.60;0.60;;;16.60;62.80;;;;;;5052813;28;20171;-62
2022/09/21 05:34:34;;;;;;;0.98;0.88;;;16.60;62.70;;;;;;5051641;28;20657;-63
2022/09/21 05:37:08;;;;;;;1.20;0.70;;;16.60;62.70;;;;;;5050742;28;20174;-62
2022/09/21 05:39:34;;;;;;;1.58;0.80;;;16.60;62.70;;;;;;5051704;28;20174;-62
2022/09/21 05:42:00;;;;;;;0.90;0.90;;;16.60;62.70;;;;;;5052497;28;20175;-62
2022/09/21 05:44:25;;;;;;;0.70;0.70;;;16.60;62.70;;;;;;5054719;28;20183;-62
2022/09/21 05:47:30;;;;;;;1.08;0.80;;;16.60;62.70;;;;;;5056868;28;20175;-62
2022/09/21 05:50:21;;;;;;;0.73;0.70;;;16.60;62.70;;;;;;5055488;28;20190;-62
2022/09/21 05:53:12;;;;;;;1.00;0.82;;;16.60;62.70;;;;;;5056844;28;20174;-63
2022/09/21 05:55:47;;;;;;;0.80;0.73;;;16.60;62.70;;;;;;5055627;28;20202;-63
2022/09/21 05:58:34;;;;;;;1.15;0.70;;;16.60;62.70;;;;;;5055688;28;20217;-63
2022/09/21 06:01:14;;;;;;;0.50;0.50;;;16.60;62.70;;;;;;5056161;28;20537;-62
2022/09/21 06:03:40;;;;;;;1.10;1.00;;;16.60;62.70;;;;;;5056391;28;20225;-62
2022/09/21 06:06:07;;;;;;;0.70;0.65;;;16.50;62.60;;;;;;5054236;28;20261;-62
2022/09/21 06:08:32;;;;;;;0.85;0.85;;;16.60;62.60;;;;;;5055105;28;20231;-62
2022/09/21 06:10:58;;;;;;;1.10;1.00;;;16.60;62.70;;;;;;5056132;28;20217;-63
2022/09/21 06:13:25;;;;;;;0.98;0.98;;;16.50;62.60;;;;;;5054507;28;20195;-63
2022/09/21 06:15:50;;;;;;;0.70;0.70;;;16.60;62.60;;;;;;5056389;28;20525;-62
2022/09/21 06:18:16;;;;;;;0.90;0.90;;;16.60;62.60;;;;;;5055252;28;20219;-63
2022/09/21 06:20:42;;;;;;;1.08;0.98;;;16.60;62.70;;;;;;5056014;28;20182;-63
2022/09/21 06:23:09;;;;;;;0.90;0.77;;;16.50;62.60;;;;;;5056014;28;20186;-63
2022/09/21 06:25:34;;;;;;;0.70;0.70;;;16.50;62.60;;;;;;5055404;28;20179;-63
2022/09/21 06:28:03;;;;;;;0.90;0.85;;;16.60;62.50;;;;;;5055824;28;20699;-62
2022/09/21 06:30:29;;;;;;;0.98;0.80;;;16.60;62.50;;;;;;5056130;28;20176;-62
2022/09/21 06:32:58;;;;;;;1.00;0.90;;;16.60;62.50;;;;;;5054979;28;20186;-62
2022/09/21 06:35:23;;;;;;;0.80;0.77;;;16.60;62.40;;;;;;5056135;28;20179;-62
2022/09/21 06:37:49;;;;;;;2.22;1.20;;;16.60;62.10;;;;;;5055798;28;20250;-62
2022/09/21 06:40:14;;;;;;;1.30;0.90;;;16.60;62.20;;;;;;5054672;28;20186;-62
2022/09/21 06:42:40;;;;;;;1.10;1.00;;;16.80;62.20;;;;;;5055874;28;20179;-62
2022/09/21 06:45:06;;;;;;;1.13;1.00;;;16.90;62.20;;;;;;5055439;28;20175;-62
2022/09/21 06:47:32;;;;;;;2.80;1.20;;;17.00;62.00;;;;;;5054902;28;20186;-62
2022/09/21 06:49:57;;;;;;;1.35;1.25;;;17.10;61.80;;;;;;5055502;28;20172;-62
2022/09/21 06:52:23;;;;;;;0.73;0.73;;;17.20;61.60;;;;;;5055473;28;20532;-62
2022/09/21 06:54:48;;;;;;;2.13;0.90;;;17.40;61.40;;;;;;5053333;28;20757;-62
2022/09/21 06:57:14;;;;;;;1.23;0.70;;;17.60;61.10;;;;;;5055151;28;20182;-62
2022/09/21 06:59:39;;;;;;;1.38;0.90;;;17.70;60.80;;;;;;5055363;28;20262;-62
2022/09/21 07:02:05;;;;;;;1.45;0.95;;;17.90;60.50;;;;;;5054328;28;20199;-62
2022/09/21 07:04:31;;;;;;;1.08;0.80;;;18.00;60.20;;;;;;5055613;28;20202;-62
2022/09/21 07:06:56;;;;;;;0.80;0.80;;;18.20;60.00;;;;;;5054906;28;20201;-62
2022/09/21 07:09:22;;;;;;;1.30;0.90;;;18.20;59.70;;;;;;5053767;28;20601;-62
2022/09/21 07:11:48;;;;;;;2.22;1.08;;;18.40;59.60;;;;;;5054962;28;20187;-62
2022/09/21 07:14:14;;;;;;;1.20;1.00;;;18.50;59.50;;;;;;5054349;28;20203;-64
2022/09/21 07:16:40;;;;;;;1.08;0.70;;;18.50;59.20;;;;;;5053860;28;20646;-62
2022/09/21 07:19:05;;;;;;;3.85;1.00;;;18.50;59.30;;;;;;5054540;28;20186;-63
2022/09/21 07:21:31;;;;;;;3.70;1.35;;;18.40;59.50;;;;;;5054540;28;20653;-64
2022/09/21 07:23:59;;;;;;;4.68;2.10;;;18.40;59.80;;;;;;5054891;28;20182;-64
2022/09/21 07:26:25;;;;;;;5.47;1.08;;;18.30;60.80;;;;;;5055017;28;20588;-64
2022/09/21 07:28:50;;;;;;;4.68;1.35;;;18.20;60.40;;;;;;5054416;28;20171;-63
2022/09/21 07:31:16;;;;;;;4.32;1.42;;;18.20;61.70;;;;;;5054659;28;20692;-64
2022/09/21 07:33:42;;;;;;;5.43;1.20;;;18.10;61.10;;;;;;5055080;28;20297;-63
2022/09/21 07:36:11;;;;;;;3.00;1.40;;;18.10;61.30;;;;;;5053921;28;20209;-64
2022/09/21 07:38:38;;;;;;;5.20;1.30;;;18.00;61.50;;;;;;5053758;28;20179;-64
2022/09/21 07:41:04;;;;;;;4.10;1.60;;;18.00;61.80;;;;;;5054514;28;20534;-64
2022/09/21 07:43:30;;;;;;;5.70;1.50;;;17.90;61.90;;;;;;5053780;28;20803;-64
2022/09/21 07:45:55;;;;;;;4.10;1.30;;;18.00;62.30;;;;;;5054498;28;20220;-63
2022/09/21 07:48:21;;;;;;;3.88;1.35;;;18.00;62.40;;;;;;5054422;28;20193;-64
2022/09/21 07:50:48;;;;;;;9.27;1.55;;;17.90;62.50;;;;;;5053736;28;20257;-64
2022/09/21 07:53:15;;;;;;;1.92;1.10;;;17.90;62.70;;;;;;5054194;28;20190;-64
2022/09/21 07:55:40;;;;;;;3.25;1.23;;;17.90;62.70;;;;;;5054573;28;20186;-64
2022/09/21 08:00:50;;;;;;;3.58;1.30;;;17.90;63.00;;;;;;5054299;28;20190;-64
2022/09/21 08:03:15;;;;;;;6.30;1.50;;;17.90;63.10;;;;;;5054164;28;20167;-65
2022/09/21 08:05:41;;;;;;;4.07;1.40;;;17.90;63.10;;;;;;5053380;28;20646;-63
2022/09/21 08:08:07;;;;;;;2.50;1.00;;;17.80;63.10;;;;;;5053625;28;20708;-63
2022/09/21 08:10:34;;;;;;;4.88;1.30;;;17.80;63.20;;;;;;5054190;28;20178;-64
2022/09/21 08:12:59;;;;;;;4.03;1.23;;;17.90;63.30;;;;;;5052864;28;20637;-64
2022/09/21 08:15:26;;;;;;;2.78;1.30;;;17.90;63.30;;;;;;5054237;28;20190;-64
2022/09/21 08:17:55;;;;;;;1.80;1.25;;;17.80;63.30;;;;;;5053399;28;20175;-64
2022/09/21 08:20:22;;;;;;;3.10;1.48;;;17.80;63.30;;;;;;5053583;28;20707;-64
2022/09/21 08:22:47;;;;;;;1.08;0.95;;;17.90;63.40;;;;;;5053999;28;20262;-64
2022/09/21 08:25:13;;;;;;;3.08;1.20;;;17.90;63.40;;;;;;5052881;28;20262;-64
2022/09/21 08:27:39;;;;;;;2.40;1.08;;;17.90;63.40;;;;;;5053735;28;20174;-64
2022/09/21 08:30:06;;;;;;;3.42;1.17;;;17.90;63.50;;;;;;5053648;28;20171;-63
2022/09/21 08:32:32;;;;;;;3.72;1.30;;;17.90;63.40;;;;;;5053115;28;20183;-63
2022/09/21 08:34:57;;;;;;;4.05;1.30;;;17.90;63.40;;;;;;5053505;28;20586;-63
2022/09/21 08:37:23;;;;;;;3.58;1.63;;;17.90;63.40;;;;;;5053718;28;20171;-64
2022/09/21 08:39:48;;;;;;;2.63;1.13;;;18.00;63.50;;;;;;5052836;28;20175;-63
2022/09/21 08:42:39;;;;;;;3.35;1.25;;;18.00;63.50;;;;;;5053035;28;20680;-63
2022/09/21 08:45:15;;;;;;;4.47;1.27;;;18.00;63.50;;;;;;5052254;28;20258;-64
2022/09/21 08:47:42;;;;;;;2.75;1.08;;;18.00;63.40;;;;;;5051384;28;20715;-63
2022/09/21 08:50:32;;;;;;;3.05;1.20;;;18.00;63.40;;;;;;5053105;28;20194;-64
2022/09/21 08:53:03;;;;;;;2.50;1.50;;;18.00;63.30;;;;;;5049343;28;20207;-64
2022/09/21 08:55:29;;;;;;;2.28;1.05;;;18.10;63.40;;;;;;5052308;28;20179;-64
2022/09/21 08:57:54;;;;;;;1.63;1.00;;;18.10;63.30;;;;;;5052106;28;20630;-64
2022/09/21 09:00:20;;;;;;;3.90;1.27;;;18.10;63.40;;;;;;5052239;28;20175;-63
2022/09/21 09:03:16;;;;;;;2.45;1.05;;;18.10;63.30;;;;;;5053200;28;20186;-64
2022/09/21 09:06:13;;;;;;;2.38;1.00;;;18.10;63.20;;;;;;5051763;28;20582;-63
2022/09/21 09:08:41;;;;;;;1.33;0.80;;;18.20;63.30;;;;;;5050834;28;20226;-63
2022/09/21 09:11:25;;;;;;;2.17;1.05;;;18.20;63.30;;;;;;5052743;28;20174;-63
2022/09/21 09:14:07;;;;;;;2.13;0.95;;;18.20;63.30;;;;;;5053117;28;20210;-64
2022/09/21 09:17:05;;;;;;;2.40;0.82;;;18.20;63.20;;;;;;5051983;28;20167;-63
2022/09/21 09:19:51;;;;;;;2.67;1.00;;;18.20;63.20;;;;;;5032724;28;20834;-63
2022/09/21 09:22:20;;;;;;;3.17;1.00;;;18.20;63.20;;;;;;5050936;28;20179;-64
2022/09/21 09:24:50;;;;;;;1.00;0.80;;;18.20;63.20;;;;;;5052773;28;20672;-63
2022/09/21 09:27:31;;;;;;;2.30;1.15;;;18.30;63.20;;;;;;5052452;28;20210;-63
2022/09/21 09:30:14;;;;;;;1.35;0.93;;;18.30;63.20;;;;;;5050529;28;20629;-62
2022/09/21 09:32:46;;;;;;;2.33;1.05;;;18.30;63.10;;;;;;5051857;28;20186;-62
2022/09/21 09:35:18;;;;;;;2.65;1.50;;;18.30;63.20;;;;;;5050617;28;20589;-63
2022/09/21 09:37:43;;;;;;;1.95;0.80;;;18.30;63.10;;;;;;5051830;28;20218;-62
2022/09/21 09:40:11;;;;;;;1.38;0.95;;;18.40;63.10;;;;;;5051357;28;20672;-63
2022/09/21 09:42:42;;;;;;;1.52;1.08;;;18.40;63.00;;;;;;5050936;28;20167;-63
2022/09/21 09:45:23;;;;;;;1.63;0.85;;;18.40;63.00;;;;;;5052577;28;20228;-63
2022/09/21 09:48:07;;;;;;;2.35;1.10;;;18.40;62.90;;;;;;5051685;28;20224;-63
2022/09/21 09:50:37;;;;;;;2.42;1.27;;;18.40;62.90;;;;;;5051979;28;20191;-62
2022/09/21 09:53:10;;;;;;;2.05;0.90;;;18.40;62.80;;;;;;5050971;28;20171;-63
2022/09/21 09:55:45;;;;;;;2.65;1.38;;;18.50;62.80;;;;;;5051584;28;20175;-63
2022/09/21 09:58:15;;;;;;;1.60;0.90;;;18.50;62.80;;;;;;5050527;28;20179;-62
2022/09/21 10:00:41;;;;;;;1.10;0.88;;;18.50;62.80;;;;;;5052568;28;20671;-63
2022/09/21 10:03:15;;;;;;;1.63;1.00;;;18.50;62.70;;;;;;5052281;28;20250;-62
2022/09/21 10:05:41;;;;;;;1.60;1.00;;;18.50;62.70;;;;;;5050921;28;20617;-62
2022/09/21 10:08:40;;;;;;;1.25;0.63;;;18.50;62.70;;;;;;5052087;28;20266;-62
2022/09/21 10:11:06;;;;;;;1.85;1.20;;;18.50;62.60;;;;;;5049490;28;20210;-63
2022/09/21 10:13:33;;;;;;;1.17;0.85;;;18.50;62.60;;;;;;5051174;28;20654;-63
2022/09/21 10:15:59;;;;;;;1.77;1.20;;;18.50;62.60;;;;;;5051011;28;20171;-63
2022/09/21 10:18:35;;;;;;;1.10;0.90;;;18.50;62.60;;;;;;5050640;28;20179;-63
2022/09/21 10:21:05;;;;;;;1.27;0.80;;;18.60;62.60;;;;;;5050911;28;20274;-63
2022/09/21 10:23:31;;;;;;;2.40;1.10;;;18.50;62.50;;;;;;5051125;28;20258;-62
2022/09/21 10:26:17;;;;;;;1.25;0.90;;;18.60;62.50;;;;;;5051325;28;20603;-63
2022/09/21 10:29:14;;;;;;;1.20;0.95;;;18.60;62.50;;;;;;5050967;28;20194;-63
2022/09/21 10:31:39;;;;;;;1.83;1.10;;;18.60;62.50;;;;;;5043980;28;20257;-63
2022/09/21 10:34:11;;;;;;;2.65;0.90;;;18.60;62.50;;;;;;5054464;28;20214;-63
2022/09/21 10:36:37;;;;;;;1.95;0.82;;;18.60;62.40;;;;;;5054822;28;20248;-62
2022/09/21 10:39:18;;;;;;;1.00;0.80;;;18.70;62.30;;;;;;5054796;28;20201;-63
2022/09/21 10:41:55;;;;;;;1.65;1.15;;;18.70;62.40;;;;;;5055911;28;20232;-63
2022/09/21 10:44:22;;;;;;;1.48;0.93;;;18.70;62.30;;;;;;5054406;28;20166;-63
2022/09/21 10:46:48;;;;;;;1.30;0.90;;;18.70;62.20;;;;;;5053838;28;20195;-63
2022/09/21 10:49:19;;;;;;;1.58;0.93;;;18.70;62.20;;;;;;5054137;28;20175;-63
2022/09/21 10:51:44;;;;;;;1.08;0.73;;;18.70;62.10;;;;;;5054683;28;20182;-63
2022/09/21 10:54:10;;;;;;;2.80;0.98;;;18.70;62.20;;;;;;5053329;28;20203;-63
2022/09/21 10:56:36;;;;;;;1.27;0.85;;;18.70;62.00;;;;;;5055659;28;20190;-63
2022/09/21 10:59:16;;;;;;;2.30;0.73;;;18.80;62.10;;;;;;5055127;28;20171;-63
2022/09/21 11:01:47;;;;;;;1.67;0.80;;;18.70;62.80;;;;;;5054555;28;20178;-63
2022/09/21 11:04:21;;;;;;;1.80;0.95;;;18.80;62.00;;;;;;5055196;28;20594;-63
2022/09/21 11:06:53;;;;;;;1.52;0.57;;;18.80;61.90;;;;;;5053642;28;20175;-62
2022/09/21 11:09:23;;;;;;;1.25;0.80;;;18.80;61.80;;;;;;5053655;28;20231;-62
2022/09/21 11:11:53;;;;;;;0.80;0.70;;;18.80;61.80;;;;;;5054234;28;20179;-63
2022/09/21 11:14:33;;;;;;;3.13;0.90;;;18.80;61.80;;;;;;5054169;28;20203;-63
2022/09/21 11:17:16;;;;;;;2.00;1.15;;;18.80;61.70;;;;;;5054864;28;20183;-63
2022/09/21 11:20:15;;;;;;;2.38;0.70;;;18.80;61.60;;;;;;5054102;28;20182;-62
2022/09/21 11:23:12;;;;;;;1.40;0.82;;;18.90;61.60;;;;;;5053069;28;20232;-63
2022/09/21 11:25:47;;;;;;;0.70;0.70;;;18.90;61.60;;;;;;5055136;28;20183;-62
2022/09/21 11:28:19;;;;;;;2.15;1.13;;;18.90;61.50;;;;;;5052873;28;20548;-62
2022/09/21 11:31:01;;;;;;;0.70;0.60;;;18.90;61.40;;;;;;5053744;28;20179;-63
2022/09/21 11:33:50;;;;;;;2.35;0.90;;;18.90;61.30;;;;;;5053882;28;20276;-62
2022/09/21 11:36:41;;;;;;;1.05;0.65;;;18.90;61.30;;;;;;5052855;28;20227;-62
2022/09/21 11:39:19;;;;;;;2.83;0.70;;;18.90;61.20;;;;;;5053447;28;20171;-63
2022/09/21 11:41:53;;;;;;;1.05;0.60;;;18.90;61.10;;;;;;5052404;28;20653;-62
2022/09/21 11:44:51;;;;;;;1.70;0.70;;;19.00;61.10;;;;;;5054541;28;20212;-63
2022/09/21 11:47:32;;;;;;;0.95;0.60;;;19.00;61.10;;;;;;5054258;28;20191;-63
2022/09/21 11:50:17;;;;;;;1.92;0.77;;;19.00;61.00;;;;;;5052573;28;20701;-63
2022/09/21 11:53:00;;;;;;;1.05;0.70;;;19.00;61.00;;;;;;5053618;28;20206;-62
2022/09/21 11:55:44;;;;;;;2.55;0.85;;;19.00;60.90;;;;;;5054589;28;20206;-62
2022/09/21 11:58:22;;;;;;;1.48;0.70;;;19.00;60.90;;;;;;5053229;28;20182;-62
2022/09/21 12:01:26;;;;;;;1.10;0.60;;;19.00;60.80;;;;;;5053482;28;20369;-62
2022/09/21 12:04:11;;;;;;;1.52;0.60;;;19.10;60.70;;;;;;5053604;28;20217;-62
2022/09/21 12:07:05;;;;;;;1.38;0.50;;;19.10;60.70;;;;;;5053189;28;20250;-62
2022/09/21 12:09:38;;;;;;;1.60;0.68;;;19.10;60.60;;;;;;5052801;28;20230;-62
2022/09/21 12:12:31;;;;;;;1.60;0.95;;;19.10;60.60;;;;;;5051993;28;20666;-62
2022/09/21 12:15:16;;;;;;;0.63;0.60;;;19.10;60.50;;;;;;5052768;28;20621;-62
2022/09/21 12:17:51;;;;;;;0.57;0.52;;;19.10;60.50;;;;;;5053461;28;20203;-62
2022/09/21 12:20:54;;;;;;;1.67;0.70;;;19.10;60.50;;;;;;5053792;28;20634;-63
2022/09/21 12:23:43;;;;;;;2.05;0.73;;;19.10;60.40;;;;;;5053483;28;20699;-62
2022/09/21 12:26:11;;;;;;;1.52;0.75;;;19.10;60.40;;;;;;5049906;28;20183;-62
2022/09/21 12:28:45;;;;;;;1.55;0.73;;;19.10;60.30;;;;;;5053072;28;20266;-62
2022/09/21 12:31:22;;;;;;;0.90;0.60;;;19.10;60.30;;;;;;5051757;28;20182;-62
2022/09/21 12:34:02;;;;;;;1.48;0.95;;;19.10;60.20;;;;;;5052770;28;20301;-62
2022/09/21 12:36:28;;;;;;;1.20;0.63;;;19.10;60.20;;;;;;5053810;28;20183;-62
2022/09/21 12:39:24;;;;;;;1.10;0.57;;;19.10;60.10;;;;;;5051805;28;20179;-62
2022/09/21 12:42:17;;;;;;;2.15;0.73;;;19.10;60.00;;;;;;5052294;28;20636;-62
2022/09/21 12:44:58;;;;;;;1.63;0.70;;;19.10;60.00;;;;;;5042760;28;20688;-63
2022/09/21 12:47:46;;;;;;;0.85;0.47;;;19.10;59.90;;;;;;5051523;28;20245;-62
2022/09/21 12:50:38;;;;;;;1.33;0.73;;;19.10;59.80;;;;;;5053032;28;20182;-62
2022/09/21 12:53:04;;;;;;;0.73;0.60;;;19.20;59.90;;;;;;5049509;28;20189;-63
2022/09/21 12:55:43;;;;;;;0.57;0.57;;;19.20;59.80;;;;;;5052053;28;20297;-62
2022/09/21 12:58:22;;;;;;;0.57;0.50;;;19.30;59.60;;;;;;5053056;28;20586;-62
2022/09/21 13:00:54;;;;;;;1.15;0.65;;;19.40;59.50;;;;;;5052848;28;20186;-62
2022/09/21 13:03:30;;;;;;;1.73;0.70;;;19.40;59.40;;;;;;5052969;28;20630;-62
2022/09/21 13:06:14;;;;;;;0.95;0.90;;;19.50;59.30;;;;;;5052116;28;20171;-62
2022/09/21 13:08:42;;;;;;;1.45;0.70;;;19.50;59.20;;;;;;5051784;28;20250;-62
2022/09/21 13:11:07;;;;;;;0.95;0.50;;;19.60;59.10;;;;;;5053004;28;20171;-62
2022/09/21 13:13:44;;;;;;;0.60;0.60;;;19.60;58.80;;;;;;5051221;28;20678;-62
2022/09/21 13:16:24;;;;;;;0.80;0.50;;;19.70;58.70;;;;;;5052728;28;20728;-62